Los Banos, California
Current Conditions -  °F | °C
As of 2:53 PM on Monday 20 Oct 2014 (Local Time) from KMCE Reporting Station
Clear Clear  
Wind Chill: 79°   Ceiling: Unl
Heat Index: 79°   Visibility: 10mi
Dew Point: 46°   Wind: 6mph
Humidity: 31%   Direction: 280°W
Pressure: 29.9"   Gusts: NA
Location:  37.06°N, 120.84°W
Report Text: KMCE 202153Z AUTO 28005KT 10SM CLR 26/08 A2990 RMK AO2 SLP123 T02610078
Loading
Personal Weather Stations






























Interactive Weather Map
Tropical Storm Tracking
New forecast layout! Learn more

10-Day Weather Forecast

Advertisements
Track Severe Weather on mobile